sensor_id;sensor_type;location;lat;lon;timestamp;P1;durP1;ratioP1;P2;durP2;ratioP2
67195;SDS011;54122;53.538;49.366;2022-12-07T00:01:40;38.00;;;15.15;;
67195;SDS011;54122;53.538;49.366;2022-12-07T00:04:09;40.35;;;15.55;;
67195;SDS011;54122;53.538;49.366;2022-12-07T00:06:44;45.45;;;15.88;;
67195;SDS011;54122;53.538;49.366;2022-12-07T00:09:14;44.15;;;14.98;;
67195;SDS011;54122;53.538;49.366;2022-12-07T00:11:41;44.72;;;15.43;;
67195;SDS011;54122;53.538;49.366;2022-12-07T00:14:13;40.28;;;14.65;;
67195;SDS011;54122;53.538;49.366;2022-12-07T00:16:41;46.63;;;14.98;;
67195;SDS011;54122;53.538;49.366;2022-12-07T00:19:09;46.15;;;14.13;;
67195;SDS011;54122;53.538;49.366;2022-12-07T00:21:37;39.00;;;15.18;;
67195;SDS011;54122;53.538;49.366;2022-12-07T00:24:04;44.70;;;15.50;;
67195;SDS011;54122;53.538;49.366;2022-12-07T00:26:32;37.65;;;14.60;;
67195;SDS011;54122;53.538;49.366;2022-12-07T00:29:02;44.67;;;14.50;;
67195;SDS011;54122;53.538;49.366;2022-12-07T00:31:32;34.58;;;14.05;;
67195;SDS011;54122;53.538;49.366;2022-12-07T00:34:05;46.38;;;15.45;;
67195;SDS011;54122;53.538;49.366;2022-12-07T00:36:32;45.50;;;14.82;;
67195;SDS011;54122;53.538;49.366;2022-12-07T00:38:59;46.08;;;13.38;;
67195;SDS011;54122;53.538;49.366;2022-12-07T00:41:26;36.97;;;13.48;;
67195;SDS011;54122;53.538;49.366;2022-12-07T00:43:54;45.95;;;14.57;;
67195;SDS011;54122;53.538;49.366;2022-12-07T00:46:21;38.05;;;14.00;;
67195;SDS011;54122;53.538;49.366;2022-12-07T00:48:49;38.33;;;12.88;;
67195;SDS011;54122;53.538;49.366;2022-12-07T00:51:17;38.88;;;13.93;;
67195;SDS011;54122;53.538;49.366;2022-12-07T00:53:45;39.28;;;13.75;;
67195;SDS011;54122;53.538;49.366;2022-12-07T00:56:12;53.08;;;15.70;;
67195;SDS011;54122;53.538;49.366;2022-12-07T01:01:10;42.25;;;13.15;;
67195;SDS011;54122;53.538;49.366;2022-12-07T01:03:37;37.42;;;13.55;;
67195;SDS011;54122;53.538;49.366;2022-12-07T01:06:04;38.28;;;13.95;;
67195;SDS011;54122;53.538;49.366;2022-12-07T01:08:31;54.13;;;16.23;;
67195;SDS011;54122;53.538;49.366;2022-12-07T01:11:05;46.05;;;13.90;;
67195;SDS011;54122;53.538;49.366;2022-12-07T01:13:33;49.50;;;14.23;;
67195;SDS011;54122;53.538;49.366;2022-12-07T01:16:02;33.95;;;13.55;;
67195;SDS011;54122;53.538;49.366;2022-12-07T01:18:31;40.75;;;13.77;;
67195;SDS011;54122;53.538;49.366;2022-12-07T01:23:36;41.67;;;13.50;;
67195;SDS011;54122;53.538;49.366;2022-12-07T01:26:05;35.65;;;13.35;;
67195;SDS011;54122;53.538;49.366;2022-12-07T01:28:33;34.05;;;13.50;;
67195;SDS011;54122;53.538;49.366;2022-12-07T01:33:32;43.42;;;14.48;;
67195;SDS011;54122;53.538;49.366;2022-12-07T01:36:04;34.50;;;13.85;;
67195;SDS011;54122;53.538;49.366;2022-12-07T01:38:38;36.17;;;12.65;;
67195;SDS011;54122;53.538;49.366;2022-12-07T01:41:06;46.05;;;13.55;;
67195;SDS011;54122;53.538;49.366;2022-12-07T01:43:33;39.55;;;13.80;;
67195;SDS011;54122;53.538;49.366;2022-12-07T01:46:00;35.40;;;13.10;;
67195;SDS011;54122;53.538;49.366;2022-12-07T01:51:10;34.50;;;12.50;;
67195;SDS011;54122;53.538;49.366;2022-12-07T01:53:39;40.55;;;14.10;;
67195;SDS011;54122;53.538;49.366;2022-12-07T01:56:09;38.90;;;13.55;;
67195;SDS011;54122;53.538;49.366;2022-12-07T01:58:38;43.78;;;15.10;;
67195;SDS011;54122;53.538;49.366;2022-12-07T02:01:05;47.15;;;14.68;;
67195;SDS011;54122;53.538;49.366;2022-12-07T02:03:36;42.88;;;14.32;;
67195;SDS011;54122;53.538;49.366;2022-12-07T02:06:06;73.90;;;27.98;;
67195;SDS011;54122;53.538;49.366;2022-12-07T02:08:34;39.60;;;13.75;;
67195;SDS011;54122;53.538;49.366;2022-12-07T02:11:02;34.47;;;12.15;;
67195;SDS011;54122;53.538;49.366;2022-12-07T02:13:33;39.60;;;14.38;;
67195;SDS011;54122;53.538;49.366;2022-12-07T02:16:10;39.35;;;14.52;;
67195;SDS011;54122;53.538;49.366;2022-12-07T02:19:04;36.30;;;13.23;;
67195;SDS011;54122;53.538;49.366;2022-12-07T02:28:05;35.35;;;13.32;;
67195;SDS011;54122;53.538;49.366;2022-12-07T02:30:36;37.42;;;13.38;;
67195;SDS011;54122;53.538;49.366;2022-12-07T02:33:19;36.33;;;13.32;;
67195;SDS011;54122;53.538;49.366;2022-12-07T02:35:59;65.88;;;20.02;;
67195;SDS011;54122;53.538;49.366;2022-12-07T02:38:38;160.93;;;34.38;;
67195;SDS011;54122;53.538;49.366;2022-12-07T02:44:07;39.50;;;12.75;;
67195;SDS011;54122;53.538;49.366;2022-12-07T02:49:15;48.15;;;15.85;;
67195;SDS011;54122;53.538;49.366;2022-12-07T02:51:42;63.97;;;22.02;;
67195;SDS011;54122;53.538;49.366;2022-12-07T02:54:12;31.70;;;13.35;;
67195;SDS011;54122;53.538;49.366;2022-12-07T02:56:44;43.35;;;13.82;;
67195;SDS011;54122;53.538;49.366;2022-12-07T03:08:17;35.50;;;13.93;;
67195;SDS011;54122;53.538;49.366;2022-12-07T03:11:08;39.30;;;13.02;;
67195;SDS011;54122;53.538;49.366;2022-12-07T03:16:23;36.67;;;14.05;;
67195;SDS011;54122;53.538;49.366;2022-12-07T03:18:55;33.33;;;12.82;;
67195;SDS011;54122;53.538;49.366;2022-12-07T03:21:31;39.10;;;14.63;;
67195;SDS011;54122;53.538;49.366;2022-12-07T03:24:03;37.42;;;13.70;;
67195;SDS011;54122;53.538;49.366;2022-12-07T03:26:35;41.60;;;13.35;;
67195;SDS011;54122;53.538;49.366;2022-12-07T03:29:07;31.05;;;12.80;;
67195;SDS011;54122;53.538;49.366;2022-12-07T03:31:40;44.55;;;13.68;;
67195;SDS011;54122;53.538;49.366;2022-12-07T03:34:18;36.92;;;14.02;;
67195;SDS011;54122;53.538;49.366;2022-12-07T03:37:10;33.20;;;14.02;;
67195;SDS011;54122;53.538;49.366;2022-12-07T03:40:03;33.47;;;12.75;;
67195;SDS011;54122;53.538;49.366;2022-12-07T03:42:37;38.05;;;13.85;;
67195;SDS011;54122;53.538;49.366;2022-12-07T03:45:04;40.00;;;13.13;;
67195;SDS011;54122;53.538;49.366;2022-12-07T03:47:54;34.33;;;12.88;;
67195;SDS011;54122;53.538;49.366;2022-12-07T03:50:28;48.60;;;14.13;;
67195;SDS011;54122;53.538;49.366;2022-12-07T03:53:04;34.50;;;12.23;;
67195;SDS011;54122;53.538;49.366;2022-12-07T03:55:39;43.65;;;15.88;;
67195;SDS011;54122;53.538;49.366;2022-12-07T03:58:09;42.60;;;13.65;;
67195;SDS011;54122;53.538;49.366;2022-12-07T04:03:08;29.33;;;10.88;;
67195;SDS011;54122;53.538;49.366;2022-12-07T04:05:35;37.20;;;12.68;;
67195;SDS011;54122;53.538;49.366;2022-12-07T04:08:02;37.58;;;13.55;;
67195;SDS011;54122;53.538;49.366;2022-12-07T04:10:29;45.30;;;15.32;;
67195;SDS011;54122;53.538;49.366;2022-12-07T04:12:55;42.50;;;12.95;;
67195;SDS011;54122;53.538;49.366;2022-12-07T04:15:22;32.50;;;10.98;;
67195;SDS011;54122;53.538;49.366;2022-12-07T04:17:48;37.45;;;11.82;;
67195;SDS011;54122;53.538;49.366;2022-12-07T04:20:15;32.70;;;11.65;;
67195;SDS011;54122;53.538;49.366;2022-12-07T04:22:41;38.08;;;12.70;;
67195;SDS011;54122;53.538;49.366;2022-12-07T04:25:08;39.88;;;13.10;;
67195;SDS011;54122;53.538;49.366;2022-12-07T04:27:35;43.70;;;13.52;;
67195;SDS011;54122;53.538;49.366;2022-12-07T04:30:01;34.70;;;13.00;;
67195;SDS011;54122;53.538;49.366;2022-12-07T04:32:28;34.55;;;11.90;;
67195;SDS011;54122;53.538;49.366;2022-12-07T04:34:54;32.83;;;12.25;;
67195;SDS011;54122;53.538;49.366;2022-12-07T04:37:21;66.38;;;21.20;;
67195;SDS011;54122;53.538;49.366;2022-12-07T04:39:48;36.35;;;12.05;;
67195;SDS011;54122;53.538;49.366;2022-12-07T04:42:14;40.75;;;11.75;;
67195;SDS011;54122;53.538;49.366;2022-12-07T04:44:41;45.42;;;13.07;;
67195;SDS011;54122;53.538;49.366;2022-12-07T04:47:08;31.50;;;10.77;;
67195;SDS011;54122;53.538;49.366;2022-12-07T04:49:34;32.75;;;10.55;;
67195;SDS011;54122;53.538;49.366;2022-12-07T04:52:01;43.03;;;12.02;;
67195;SDS011;54122;53.538;49.366;2022-12-07T04:54:27;31.75;;;11.93;;
67195;SDS011;54122;53.538;49.366;2022-12-07T04:56:54;40.25;;;12.35;;
67195;SDS011;54122;53.538;49.366;2022-12-07T04:59:20;31.10;;;11.70;;
67195;SDS011;54122;53.538;49.366;2022-12-07T05:01:47;34.88;;;11.57;;
67195;SDS011;54122;53.538;49.366;2022-12-07T05:04:13;29.67;;;11.10;;
67195;SDS011;54122;53.538;49.366;2022-12-07T05:06:41;39.70;;;12.40;;
67195;SDS011;54122;53.538;49.366;2022-12-07T05:09:08;30.30;;;10.90;;
67195;SDS011;54122;53.538;49.366;2022-12-07T05:11:35;30.25;;;11.18;;
67195;SDS011;54122;53.538;49.366;2022-12-07T05:16:33;32.20;;;11.60;;
67195;SDS011;54122;53.538;49.366;2022-12-07T05:19:00;28.23;;;10.60;;
67195;SDS011;54122;53.538;49.366;2022-12-07T05:21:27;31.58;;;10.77;;
67195;SDS011;54122;53.538;49.366;2022-12-07T05:23:53;34.15;;;12.25;;
67195;SDS011;54122;53.538;49.366;2022-12-07T05:26:20;36.22;;;12.07;;
67195;SDS011;54122;53.538;49.366;2022-12-07T05:28:50;29.75;;;11.18;;
67195;SDS011;54122;53.538;49.366;2022-12-07T05:31:19;51.17;;;20.08;;
67195;SDS011;54122;53.538;49.366;2022-12-07T05:33:46;31.23;;;13.07;;
67195;SDS011;54122;53.538;49.366;2022-12-07T05:36:13;38.83;;;11.98;;
67195;SDS011;54122;53.538;49.366;2022-12-07T05:38:39;34.47;;;12.35;;
67195;SDS011;54122;53.538;49.366;2022-12-07T05:41:07;33.20;;;10.90;;
67195;SDS011;54122;53.538;49.366;2022-12-07T05:43:58;31.40;;;11.30;;
67195;SDS011;54122;53.538;49.366;2022-12-07T05:46:24;35.25;;;11.55;;
67195;SDS011;54122;53.538;49.366;2022-12-07T05:48:51;33.83;;;11.65;;
67195;SDS011;54122;53.538;49.366;2022-12-07T05:51:18;37.63;;;12.00;;
67195;SDS011;54122;53.538;49.366;2022-12-07T05:53:44;32.90;;;11.48;;
67195;SDS011;54122;53.538;49.366;2022-12-07T05:56:11;30.85;;;11.90;;
67195;SDS011;54122;53.538;49.366;2022-12-07T05:58:38;34.72;;;12.73;;
67195;SDS011;54122;53.538;49.366;2022-12-07T06:01:22;34.08;;;14.73;;
67195;SDS011;54122;53.538;49.366;2022-12-07T06:03:49;28.48;;;11.52;;
67195;SDS011;54122;53.538;49.366;2022-12-07T06:06:15;35.95;;;13.10;;
67195;SDS011;54122;53.538;49.366;2022-12-07T06:08:42;38.85;;;13.13;;
67195;SDS011;54122;53.538;49.366;2022-12-07T06:11:08;35.65;;;12.57;;
67195;SDS011;54122;53.538;49.366;2022-12-07T06:13:53;48.08;;;13.23;;
67195;SDS011;54122;53.538;49.366;2022-12-07T06:16:19;37.95;;;14.10;;
67195;SDS011;54122;53.538;49.366;2022-12-07T06:18:46;52.38;;;16.98;;
67195;SDS011;54122;53.538;49.366;2022-12-07T06:21:12;51.55;;;12.70;;
67195;SDS011;54122;53.538;49.366;2022-12-07T06:23:40;53.65;;;13.07;;
67195;SDS011;54122;53.538;49.366;2022-12-07T06:26:06;35.53;;;13.30;;
67195;SDS011;54122;53.538;49.366;2022-12-07T06:28:33;28.63;;;12.13;;
67195;SDS011;54122;53.538;49.366;2022-12-07T06:30:59;45.70;;;14.23;;
67195;SDS011;54122;53.538;49.366;2022-12-07T06:33:27;28.20;;;11.27;;
67195;SDS011;54122;53.538;49.366;2022-12-07T06:35:54;29.38;;;10.30;;
67195;SDS011;54122;53.538;49.366;2022-12-07T06:38:21;32.03;;;11.35;;
67195;SDS011;54122;53.538;49.366;2022-12-07T06:40:47;25.20;;;10.75;;
67195;SDS011;54122;53.538;49.366;2022-12-07T06:43:14;30.55;;;11.27;;
67195;SDS011;54122;53.538;49.366;2022-12-07T06:45:41;30.60;;;11.35;;
67195;SDS011;54122;53.538;49.366;2022-12-07T06:48:07;29.88;;;11.27;;
67195;SDS011;54122;53.538;49.366;2022-12-07T06:50:34;36.38;;;11.52;;
67195;SDS011;54122;53.538;49.366;2022-12-07T06:53:00;33.67;;;10.70;;
67195;SDS011;54122;53.538;49.366;2022-12-07T06:55:27;36.65;;;10.73;;
67195;SDS011;54122;53.538;49.366;2022-12-07T06:57:54;29.98;;;10.75;;
67195;SDS011;54122;53.538;49.366;2022-12-07T07:00:21;21.98;;;10.13;;
67195;SDS011;54122;53.538;49.366;2022-12-07T07:02:49;29.73;;;11.93;;
67195;SDS011;54122;53.538;49.366;2022-12-07T07:05:16;29.42;;;12.25;;
67195;SDS011;54122;53.538;49.366;2022-12-07T07:07:44;28.85;;;12.27;;
67195;SDS011;54122;53.538;49.366;2022-12-07T07:10:11;31.30;;;12.52;;
67195;SDS011;54122;53.538;49.366;2022-12-07T07:12:37;39.15;;;11.30;;
67195;SDS011;54122;53.538;49.366;2022-12-07T07:15:07;25.60;;;10.00;;
67195;SDS011;54122;53.538;49.366;2022-12-07T07:17:34;31.70;;;13.10;;
67195;SDS011;54122;53.538;49.366;2022-12-07T07:20:00;32.28;;;13.13;;
67195;SDS011;54122;53.538;49.366;2022-12-07T07:22:26;22.75;;;10.02;;
67195;SDS011;54122;53.538;49.366;2022-12-07T07:24:53;24.92;;;10.57;;
67195;SDS011;54122;53.538;49.366;2022-12-07T07:27:20;27.40;;;10.38;;
67195;SDS011;54122;53.538;49.366;2022-12-07T07:29:46;20.05;;;9.43;;
67195;SDS011;54122;53.538;49.366;2022-12-07T07:32:15;21.60;;;10.05;;
67195;SDS011;54122;53.538;49.366;2022-12-07T07:34:42;30.70;;;11.70;;
67195;SDS011;54122;53.538;49.366;2022-12-07T07:37:09;26.70;;;10.38;;
67195;SDS011;54122;53.538;49.366;2022-12-07T07:39:39;26.13;;;10.38;;
67195;SDS011;54122;53.538;49.366;2022-12-07T07:42:05;24.35;;;10.00;;
67195;SDS011;54122;53.538;49.366;2022-12-07T07:44:34;25.88;;;10.35;;
67195;SDS011;54122;53.538;49.366;2022-12-07T07:47:01;28.33;;;10.98;;
67195;SDS011;54122;53.538;49.366;2022-12-07T07:49:28;27.83;;;10.65;;
67195;SDS011;54122;53.538;49.366;2022-12-07T07:51:54;21.90;;;10.02;;
67195;SDS011;54122;53.538;49.366;2022-12-07T07:54:21;22.33;;;9.95;;
67195;SDS011;54122;53.538;49.366;2022-12-07T07:56:47;33.65;;;12.65;;
67195;SDS011;54122;53.538;49.366;2022-12-07T07:59:14;28.80;;;11.63;;
67195;SDS011;54122;53.538;49.366;2022-12-07T08:01:41;42.83;;;12.63;;
67195;SDS011;54122;53.538;49.366;2022-12-07T08:04:07;26.75;;;9.15;;
67195;SDS011;54122;53.538;49.366;2022-12-07T08:06:34;22.38;;;9.27;;
67195;SDS011;54122;53.538;49.366;2022-12-07T08:09:01;23.63;;;8.70;;
67195;SDS011;54122;53.538;49.366;2022-12-07T08:11:28;29.48;;;9.38;;
67195;SDS011;54122;53.538;49.366;2022-12-07T08:13:55;22.02;;;9.43;;
67195;SDS011;54122;53.538;49.366;2022-12-07T08:16:21;24.92;;;10.18;;
67195;SDS011;54122;53.538;49.366;2022-12-07T08:18:48;26.73;;;9.18;;
67195;SDS011;54122;53.538;49.366;2022-12-07T08:21:14;21.17;;;9.23;;
67195;SDS011;54122;53.538;49.366;2022-12-07T08:23:41;22.30;;;9.02;;
67195;SDS011;54122;53.538;49.366;2022-12-07T08:26:10;23.67;;;9.38;;
67195;SDS011;54122;53.538;49.366;2022-12-07T08:28:40;17.80;;;8.35;;
67195;SDS011;54122;53.538;49.366;2022-12-07T08:31:08;25.25;;;9.02;;
67195;SDS011;54122;53.538;49.366;2022-12-07T08:33:40;25.50;;;9.65;;
67195;SDS011;54122;53.538;49.366;2022-12-07T08:36:08;19.00;;;8.07;;
67195;SDS011;54122;53.538;49.366;2022-12-07T08:38:37;26.05;;;8.43;;
67195;SDS011;54122;53.538;49.366;2022-12-07T08:41:07;24.85;;;7.97;;
67195;SDS011;54122;53.538;49.366;2022-12-07T08:43:34;22.48;;;9.50;;
67195;SDS011;54122;53.538;49.366;2022-12-07T08:48:34;22.40;;;9.02;;
67195;SDS011;54122;53.538;49.366;2022-12-07T08:51:05;22.05;;;8.45;;
67195;SDS011;54122;53.538;49.366;2022-12-07T08:53:31;20.98;;;8.45;;
67195;SDS011;54122;53.538;49.366;2022-12-07T08:56:02;28.63;;;7.95;;
67195;SDS011;54122;53.538;49.366;2022-12-07T08:58:32;16.95;;;7.93;;
67195;SDS011;54122;53.538;49.366;2022-12-07T09:01:01;22.95;;;8.32;;
67195;SDS011;54122;53.538;49.366;2022-12-07T09:03:28;20.92;;;8.05;;
67195;SDS011;54122;53.538;49.366;2022-12-07T09:05:55;15.13;;;6.38;;
67195;SDS011;54122;53.538;49.366;2022-12-07T09:08:22;17.15;;;7.65;;
67195;SDS011;54122;53.538;49.366;2022-12-07T09:10:52;15.73;;;7.57;;
67195;SDS011;54122;53.538;49.366;2022-12-07T09:13:18;14.82;;;7.30;;
67195;SDS011;54122;53.538;49.366;2022-12-07T09:15:45;20.85;;;7.95;;
67195;SDS011;54122;53.538;49.366;2022-12-07T09:18:12;22.08;;;7.15;;
67195;SDS011;54122;53.538;49.366;2022-12-07T09:20:38;14.90;;;6.43;;
67195;SDS011;54122;53.538;49.366;2022-12-07T09:23:05;16.48;;;6.88;;
67195;SDS011;54122;53.538;49.366;2022-12-07T09:25:33;22.25;;;7.88;;
67195;SDS011;54122;53.538;49.366;2022-12-07T09:28:00;17.52;;;7.00;;
67195;SDS011;54122;53.538;49.366;2022-12-07T09:30:27;17.75;;;7.10;;
67195;SDS011;54122;53.538;49.366;2022-12-07T09:32:54;14.32;;;6.72;;
67195;SDS011;54122;53.538;49.366;2022-12-07T09:35:22;20.92;;;6.68;;
67195;SDS011;54122;53.538;49.366;2022-12-07T09:37:50;14.05;;;6.03;;
67195;SDS011;54122;53.538;49.366;2022-12-07T09:40:17;16.83;;;6.30;;
67195;SDS011;54122;53.538;49.366;2022-12-07T09:42:48;20.40;;;7.65;;
67195;SDS011;54122;53.538;49.366;2022-12-07T09:45:53;14.90;;;5.80;;
67195;SDS011;54122;53.538;49.366;2022-12-07T09:48:18;18.52;;;7.28;;
67195;SDS011;54122;53.538;49.366;2022-12-07T09:51:16;17.38;;;6.47;;
67195;SDS011;54122;53.538;49.366;2022-12-07T09:53:46;21.10;;;6.57;;
67195;SDS011;54122;53.538;49.366;2022-12-07T09:56:14;16.10;;;7.13;;
67195;SDS011;54122;53.538;49.366;2022-12-07T09:58:44;21.50;;;7.50;;
67195;SDS011;54122;53.538;49.366;2022-12-07T10:01:13;15.82;;;6.43;;
67195;SDS011;54122;53.538;49.366;2022-12-07T10:03:47;13.02;;;6.88;;
67195;SDS011;54122;53.538;49.366;2022-12-07T10:06:16;16.15;;;6.22;;
67195;SDS011;54122;53.538;49.366;2022-12-07T10:08:43;13.63;;;6.93;;
67195;SDS011;54122;53.538;49.366;2022-12-07T10:11:10;18.20;;;7.50;;
67195;SDS011;54122;53.538;49.366;2022-12-07T10:16:05;17.65;;;7.45;;
67195;SDS011;54122;53.538;49.366;2022-12-07T10:21:08;13.73;;;5.85;;
67195;SDS011;54122;53.538;49.366;2022-12-07T10:24:01;17.38;;;7.18;;
67195;SDS011;54122;53.538;49.366;2022-12-07T10:26:32;16.15;;;4.90;;
67195;SDS011;54122;53.538;49.366;2022-12-07T10:29:02;18.17;;;6.13;;
67195;SDS011;54122;53.538;49.366;2022-12-07T10:31:40;19.15;;;6.68;;
67195;SDS011;54122;53.538;49.366;2022-12-07T10:34:50;21.45;;;6.38;;
67195;SDS011;54122;53.538;49.366;2022-12-07T10:39:44;19.13;;;6.23;;
67195;SDS011;54122;53.538;49.366;2022-12-07T10:42:25;18.67;;;5.13;;
67195;SDS011;54122;53.538;49.366;2022-12-07T10:47:51;22.15;;;6.88;;
67195;SDS011;54122;53.538;49.366;2022-12-07T10:53:40;17.25;;;5.65;;
67195;SDS011;54122;53.538;49.366;2022-12-07T11:01:33;15.25;;;5.75;;
67195;SDS011;54122;53.538;49.366;2022-12-07T11:27:33;19.23;;;5.95;;
67195;SDS011;54122;53.538;49.366;2022-12-07T11:37:33;117.70;;;33.45;;
67195;SDS011;54122;53.538;49.366;2022-12-07T11:40:03;162.18;;;50.97;;
67195;SDS011;54122;53.538;49.366;2022-12-07T11:45:44;59.75;;;21.10;;
67195;SDS011;54122;53.538;49.366;2022-12-07T11:48:22;42.75;;;16.10;;
67195;SDS011;54122;53.538;49.366;2022-12-07T11:50:59;30.10;;;10.75;;
67195;SDS011;54122;53.538;49.366;2022-12-07T11:53:38;32.80;;;10.05;;
67195;SDS011;54122;53.538;49.366;2022-12-07T11:56:14;34.83;;;11.03;;
67195;SDS011;54122;53.538;49.366;2022-12-07T11:58:48;30.25;;;10.32;;
67195;SDS011;54122;53.538;49.366;2022-12-07T12:01:24;54.67;;;15.25;;
67195;SDS011;54122;53.538;49.366;2022-12-07T12:06:41;127.90;;;34.72;;
67195;SDS011;54122;53.538;49.366;2022-12-07T12:09:13;101.47;;;31.63;;
67195;SDS011;54122;53.538;49.366;2022-12-07T12:14:19;76.50;;;21.50;;
67195;SDS011;54122;53.538;49.366;2022-12-07T12:22:46;38.08;;;9.60;;
67195;SDS011;54122;53.538;49.366;2022-12-07T12:25:25;29.58;;;7.55;;
67195;SDS011;54122;53.538;49.366;2022-12-07T12:27:58;14.55;;;5.30;;
67195;SDS011;54122;53.538;49.366;2022-12-07T12:33:06;14.27;;;5.32;;
67195;SDS011;54122;53.538;49.366;2022-12-07T12:53:32;15.02;;;5.15;;
67195;SDS011;54122;53.538;49.366;2022-12-07T12:55:51;15.48;;;5.57;;
67195;SDS011;54122;53.538;49.366;2022-12-07T12:58:31;19.73;;;6.18;;
67195;SDS011;54122;53.538;49.366;2022-12-07T13:03:54;22.42;;;6.95;;
67195;SDS011;54122;53.538;49.366;2022-12-07T13:08:56;26.40;;;8.60;;
67195;SDS011;54122;53.538;49.366;2022-12-07T13:11:29;20.15;;;6.32;;
67195;SDS011;54122;53.538;49.366;2022-12-07T13:20:03;20.23;;;6.43;;
67195;SDS011;54122;53.538;49.366;2022-12-07T13:25:18;16.50;;;5.55;;
67195;SDS011;54122;53.538;49.366;2022-12-07T13:28:16;14.27;;;5.95;;
67195;SDS011;54122;53.538;49.366;2022-12-07T13:31:46;10.30;;;4.90;;
67195;SDS011;54122;53.538;49.366;2022-12-07T13:33:44;13.82;;;5.35;;
67195;SDS011;54122;53.538;49.366;2022-12-07T13:36:16;16.73;;;6.03;;
67195;SDS011;54122;53.538;49.366;2022-12-07T13:38:56;27.13;;;7.57;;
67195;SDS011;54122;53.538;49.366;2022-12-07T13:41:26;17.10;;;5.68;;
67195;SDS011;54122;53.538;49.366;2022-12-07T13:44:01;16.40;;;5.25;;
67195;SDS011;54122;53.538;49.366;2022-12-07T13:49:30;13.77;;;5.22;;
67195;SDS011;54122;53.538;49.366;2022-12-07T13:52:15;12.75;;;4.82;;
67195;SDS011;54122;53.538;49.366;2022-12-07T13:57:25;15.52;;;5.20;;
67195;SDS011;54122;53.538;49.366;2022-12-07T13:59:53;23.55;;;5.95;;
67195;SDS011;54122;53.538;49.366;2022-12-07T14:02:20;74.05;;;23.20;;
67195;SDS011;54122;53.538;49.366;2022-12-07T14:04:50;48.53;;;18.63;;
67195;SDS011;54122;53.538;49.366;2022-12-07T14:09:55;31.63;;;7.68;;
67195;SDS011;54122;53.538;49.366;2022-12-07T14:12:24;28.48;;;6.72;;
67195;SDS011;54122;53.538;49.366;2022-12-07T14:14:51;19.15;;;5.30;;
67195;SDS011;54122;53.538;49.366;2022-12-07T14:17:21;14.65;;;4.72;;
67195;SDS011;54122;53.538;49.366;2022-12-07T14:19:50;17.38;;;5.85;;
67195;SDS011;54122;53.538;49.366;2022-12-07T14:30:35;11.02;;;4.30;;
67195;SDS011;54122;53.538;49.366;2022-12-07T14:33:02;16.08;;;5.57;;
67195;SDS011;54122;53.538;49.366;2022-12-07T14:35:30;16.27;;;5.25;;
67195;SDS011;54122;53.538;49.366;2022-12-07T14:37:58;29.00;;;5.90;;
67195;SDS011;54122;53.538;49.366;2022-12-07T14:40:26;13.75;;;6.03;;
67195;SDS011;54122;53.538;49.366;2022-12-07T14:42:55;16.23;;;6.82;;
67195;SDS011;54122;53.538;49.366;2022-12-07T14:45:27;43.55;;;10.60;;
67195;SDS011;54122;53.538;49.366;2022-12-07T14:47:54;38.10;;;11.75;;
67195;SDS011;54122;53.538;49.366;2022-12-07T14:50:20;34.33;;;10.02;;
67195;SDS011;54122;53.538;49.366;2022-12-07T14:52:49;24.15;;;5.85;;
67195;SDS011;54122;53.538;49.366;2022-12-07T14:57:49;14.95;;;4.72;;
67195;SDS011;54122;53.538;49.366;2022-12-07T15:00:18;24.77;;;4.70;;
67195;SDS011;54122;53.538;49.366;2022-12-07T15:02:45;20.77;;;4.70;;
67195;SDS011;54122;53.538;49.366;2022-12-07T15:05:13;30.38;;;6.57;;
67195;SDS011;54122;53.538;49.366;2022-12-07T15:07:40;26.20;;;6.40;;
67195;SDS011;54122;53.538;49.366;2022-12-07T15:10:09;27.67;;;11.02;;
67195;SDS011;54122;53.538;49.366;2022-12-07T15:12:58;45.30;;;15.02;;
67195;SDS011;54122;53.538;49.366;2022-12-07T15:15:46;52.60;;;15.70;;
67195;SDS011;54122;53.538;49.366;2022-12-07T15:18:14;60.25;;;16.92;;
67195;SDS011;54122;53.538;49.366;2022-12-07T15:20:41;45.30;;;14.05;;
67195;SDS011;54122;53.538;49.366;2022-12-07T15:23:08;35.28;;;13.50;;
67195;SDS011;54122;53.538;49.366;2022-12-07T15:25:35;46.72;;;15.07;;
67195;SDS011;54122;53.538;49.366;2022-12-07T15:28:01;28.17;;;10.10;;
67195;SDS011;54122;53.538;49.366;2022-12-07T15:30:28;26.45;;;6.88;;
67195;SDS011;54122;53.538;49.366;2022-12-07T15:32:54;14.23;;;5.60;;
67195;SDS011;54122;53.538;49.366;2022-12-07T15:35:21;18.58;;;6.13;;
67195;SDS011;54122;53.538;49.366;2022-12-07T15:37:47;9.77;;;3.60;;
67195;SDS011;54122;53.538;49.366;2022-12-07T15:40:14;21.85;;;8.50;;
67195;SDS011;54122;53.538;49.366;2022-12-07T15:42:40;22.85;;;7.95;;
67195;SDS011;54122;53.538;49.366;2022-12-07T15:45:07;20.63;;;6.78;;
67195;SDS011;54122;53.538;49.366;2022-12-07T15:47:35;19.23;;;6.28;;
67195;SDS011;54122;53.538;49.366;2022-12-07T15:50:05;23.15;;;6.47;;
67195;SDS011;54122;53.538;49.366;2022-12-07T15:52:35;29.77;;;6.27;;
67195;SDS011;54122;53.538;49.366;2022-12-07T15:55:02;15.60;;;5.85;;
67195;SDS011;54122;53.538;49.366;2022-12-07T15:57:29;200.15;;;50.60;;
67195;SDS011;54122;53.538;49.366;2022-12-07T15:59:57;228.48;;;64.28;;
67195;SDS011;54122;53.538;49.366;2022-12-07T16:02:24;158.98;;;41.30;;
67195;SDS011;54122;53.538;49.366;2022-12-07T16:04:51;249.00;;;58.30;;
67195;SDS011;54122;53.538;49.366;2022-12-07T16:07:18;371.27;;;96.45;;
67195;SDS011;54122;53.538;49.366;2022-12-07T16:09:45;310.25;;;72.95;;
67195;SDS011;54122;53.538;49.366;2022-12-07T16:12:14;167.70;;;39.72;;
67195;SDS011;54122;53.538;49.366;2022-12-07T16:14:41;164.35;;;40.95;;
67195;SDS011;54122;53.538;49.366;2022-12-07T16:17:08;74.20;;;22.63;;
67195;SDS011;54122;53.538;49.366;2022-12-07T16:19:35;81.53;;;27.25;;
67195;SDS011;54122;53.538;49.366;2022-12-07T16:22:03;74.45;;;27.63;;
67195;SDS011;54122;53.538;49.366;2022-12-07T16:24:30;88.10;;;28.23;;
67195;SDS011;54122;53.538;49.366;2022-12-07T16:26:57;57.55;;;20.55;;
67195;SDS011;54122;53.538;49.366;2022-12-07T16:29:24;67.68;;;20.00;;
67195;SDS011;54122;53.538;49.366;2022-12-07T16:31:50;73.28;;;22.08;;
67195;SDS011;54122;53.538;49.366;2022-12-07T16:34:18;55.30;;;18.55;;
67195;SDS011;54122;53.538;49.366;2022-12-07T16:36:44;60.55;;;15.80;;
67195;SDS011;54122;53.538;49.366;2022-12-07T16:39:11;36.65;;;10.68;;
67195;SDS011;54122;53.538;49.366;2022-12-07T16:41:37;37.58;;;12.48;;
67195;SDS011;54122;53.538;49.366;2022-12-07T16:44:05;59.20;;;12.80;;
67195;SDS011;54122;53.538;49.366;2022-12-07T16:46:33;34.47;;;9.80;;
67195;SDS011;54122;53.538;49.366;2022-12-07T16:49:01;27.67;;;9.75;;
67195;SDS011;54122;53.538;49.366;2022-12-07T16:51:29;19.17;;;7.10;;
67195;SDS011;54122;53.538;49.366;2022-12-07T16:53:55;28.90;;;8.45;;
67195;SDS011;54122;53.538;49.366;2022-12-07T16:56:22;28.80;;;9.18;;
67195;SDS011;54122;53.538;49.366;2022-12-07T16:58:48;35.30;;;12.77;;
67195;SDS011;54122;53.538;49.366;2022-12-07T17:01:16;36.25;;;10.68;;
67195;SDS011;54122;53.538;49.366;2022-12-07T17:03:45;45.47;;;13.18;;
67195;SDS011;54122;53.538;49.366;2022-12-07T17:06:13;46.90;;;13.38;;
67195;SDS011;54122;53.538;49.366;2022-12-07T17:08:47;46.83;;;14.70;;